Time;durP1;ratioP1;P1;durP2;ratioP2;P2;SDS_P1;SDS_P2;PMS_P1;PMS_P2;Temp;Humidity;BMP_temperature;BMP_pressure;BME280_temperature;BME280_humidity;BME280_pressure;Samples;Min_cycle;Max_cycle;Signal;HPM_P1;HPM_P2
2021/06/20 00:00:20;;;;;;;1.90;1.80;;;27.90;65.30;;;;;;5083488;28;20473;-26
2021/06/20 00:02:51;;;;;;;2.50;2.30;;;27.90;65.50;;;;;;5083944;28;20515;-25
2021/06/20 00:05:25;;;;;;;2.47;2.10;;;28.10;65.50;;;;;;5083531;28;20494;-25
2021/06/20 00:07:59;;;;;;;1.90;1.80;;;27.90;65.80;;;;;;5084145;28;20470;-24
2021/06/20 00:10:30;;;;;;;2.77;1.70;;;27.90;67.00;;;;;;5082156;28;20514;-25
2021/06/20 00:13:01;;;;;;;2.30;2.00;;;27.80;67.60;;;;;;5083992;28;20471;-25
2021/06/20 00:15:33;;;;;;;1.80;1.50;;;27.90;67.20;;;;;;5076169;28;20483;-24
2021/06/20 00:18:05;;;;;;;2.40;1.70;;;27.80;68.60;;;;;;5083708;28;20476;-27
2021/06/20 00:20:40;;;;;;;3.93;2.37;;;27.80;67.00;;;;;;5082887;28;20471;-25
2021/06/20 00:23:13;;;;;;;2.23;2.03;;;27.80;67.60;;;;;;5083329;28;20447;-25
2021/06/20 00:25:45;;;;;;;2.47;2.27;;;27.80;67.90;;;;;;5082299;28;20477;-25
2021/06/20 00:28:16;;;;;;;4.40;2.53;;;27.70;66.80;;;;;;5083932;28;20454;-22
2021/06/20 00:30:49;;;;;;;2.67;2.10;;;27.70;65.90;;;;;;5067150;28;20484;-22
2021/06/20 00:33:21;;;;;;;2.20;2.00;;;27.50;67.50;;;;;;5083102;28;20463;-23
2021/06/20 00:35:52;;;;;;;2.63;2.37;;;27.40;67.00;;;;;;5082844;28;20460;-25
2021/06/20 00:38:24;;;;;;;2.40;2.20;;;27.40;68.60;;;;;;5082347;28;20463;-24
2021/06/20 00:40:55;;;;;;;3.90;2.60;;;27.40;68.70;;;;;;5081971;28;20555;-24
2021/06/20 00:43:26;;;;;;;2.43;1.87;;;27.50;67.90;;;;;;5082992;28;20450;-26
2021/06/20 00:45:57;;;;;;;2.00;1.80;;;27.50;68.70;;;;;;5082591;28;20487;-23
2021/06/20 00:48:29;;;;;;;2.00;1.60;;;27.30;67.90;;;;;;5082798;28;20511;-23
2021/06/20 00:51:00;;;;;;;3.30;2.40;;;27.40;69.20;;;;;;5082614;28;20443;-26
2021/06/20 00:53:33;;;;;;;2.60;2.10;;;27.20;68.30;;;;;;5082864;28;20453;-22
2021/06/20 00:56:05;;;;;;;2.97;2.17;;;27.30;68.40;;;;;;5081989;28;20447;-24
2021/06/20 00:58:36;;;;;;;1.97;1.80;;;27.20;66.80;;;;;;5083443;28;20444;-25
2021/06/20 01:01:07;;;;;;;2.40;2.20;;;27.20;68.90;;;;;;5074633;28;20508;-24
2021/06/20 01:03:38;;;;;;;2.87;2.67;;;27.20;66.60;;;;;;5082783;28;20491;-28
2021/06/20 01:06:09;;;;;;;2.30;1.97;;;27.10;65.60;;;;;;5082477;28;20590;-25
2021/06/20 01:08:42;;;;;;;2.30;2.10;;;27.00;66.70;;;;;;5082964;28;20474;-24
2021/06/20 01:11:13;;;;;;;2.17;1.97;;;26.90;66.60;;;;;;5074181;28;20842;-24
2021/06/20 01:13:45;;;;;;;2.10;2.00;;;26.90;67.30;;;;;;5078984;28;20475;-25
2021/06/20 01:16:17;;;;;;;4.50;3.03;;;26.80;67.30;;;;;;5066765;28;20457;-24
2021/06/20 01:18:48;;;;;;;2.60;2.40;;;26.70;68.50;;;;;;5082662;28;20966;-25
2021/06/20 01:21:19;;;;;;;2.63;2.20;;;26.70;70.20;;;;;;5082449;28;20478;-24
2021/06/20 01:23:52;;;;;;;2.30;2.10;;;26.70;69.70;;;;;;5082475;28;20786;-24
2021/06/20 01:26:22;;;;;;;2.47;2.27;;;26.70;71.10;;;;;;5065945;28;20514;-26
2021/06/20 01:29:02;;;;;;;2.93;2.57;;;26.60;71.70;;;;;;5082958;28;20452;-25
2021/06/20 01:31:35;;;;;;;2.40;1.80;;;26.50;70.40;;;;;;5082580;28;20448;-23
2021/06/20 01:34:07;;;;;;;2.50;2.30;;;26.40;70.80;;;;;;5081893;28;20521;-25
2021/06/20 01:36:38;;;;;;;2.43;2.23;;;26.40;72.00;;;;;;5082322;28;20447;-24
2021/06/20 01:39:12;;;;;;;3.37;2.40;;;26.20;72.30;;;;;;5080477;28;20825;-22
2021/06/20 01:41:43;;;;;;;3.20;2.10;;;26.20;73.40;;;;;;5078465;28;20444;-23
2021/06/20 01:44:13;;;;;;;2.90;2.10;;;26.20;71.80;;;;;;5080421;28;20550;-23
2021/06/20 01:46:51;;;;;;;3.00;2.47;;;26.10;74.10;;;;;;5067321;28;20439;-28
2021/06/20 01:49:22;;;;;;;3.03;2.50;;;26.10;73.40;;;;;;5084464;28;20451;-25
2021/06/20 01:51:54;;;;;;;2.57;2.20;;;26.00;73.50;;;;;;5089159;28;20764;-23
2021/06/20 01:54:26;;;;;;;3.70;2.70;;;26.00;73.90;;;;;;5087522;28;20977;-22
2021/06/20 01:56:57;;;;;;;3.23;2.03;;;25.90;74.80;;;;;;5089204;28;20435;-25
2021/06/20 01:59:28;;;;;;;3.20;2.53;;;25.90;75.00;;;;;;5089097;28;20497;-23
2021/06/20 02:01:59;;;;;;;3.17;2.30;;;25.90;75.60;;;;;;5089112;28;20447;-25
2021/06/20 02:04:30;;;;;;;4.80;2.17;;;25.90;75.20;;;;;;5088371;28;20473;-29
2021/06/20 02:07:01;;;;;;;2.27;2.07;;;25.80;75.70;;;;;;5088734;28;20454;-26
2021/06/20 02:09:33;;;;;;;5.07;2.90;;;25.70;75.80;;;;;;5087588;28;20490;-25
2021/06/20 02:12:05;;;;;;;2.60;2.40;;;25.80;75.80;;;;;;5088248;28;20454;-25
2021/06/20 02:14:37;;;;;;;4.27;2.50;;;25.70;76.20;;;;;;5081808;28;20454;-26
2021/06/20 02:17:23;;;;;;;3.67;2.87;;;25.60;77.10;;;;;;5088907;28;20448;-27
2021/06/20 02:19:56;;;;;;;3.33;2.50;;;25.60;77.20;;;;;;5088513;28;20473;-25
2021/06/20 02:22:27;;;;;;;2.20;2.00;;;25.60;76.60;;;;;;5088214;28;20451;-28
2021/06/20 02:25:00;;;;;;;2.50;2.30;;;25.60;77.80;;;;;;5087275;28;20498;-25
2021/06/20 02:27:31;;;;;;;3.03;2.73;;;25.60;77.50;;;;;;5088737;28;20970;-23
2021/06/20 02:30:02;;;;;;;3.93;2.70;;;25.60;77.30;;;;;;5088400;28;20819;-26
2021/06/20 02:32:33;;;;;;;2.60;2.40;;;25.50;77.10;;;;;;5088459;28;20616;-27
2021/06/20 02:35:04;;;;;;;2.50;2.30;;;25.40;78.20;;;;;;5087072;28;20454;-24
2021/06/20 02:37:35;;;;;;;2.40;2.20;;;25.30;79.00;;;;;;5088403;28;20467;-23
2021/06/20 02:40:09;;;;;;;3.00;2.70;;;25.30;79.00;;;;;;5087795;28;20454;-26
2021/06/20 02:42:41;;;;;;;2.80;2.70;;;25.20;78.80;;;;;;5088420;28;20443;-23
2021/06/20 02:45:13;;;;;;;4.10;2.90;;;25.20;79.40;;;;;;5085789;28;20479;-23
2021/06/20 02:47:46;;;;;;;2.67;2.47;;;25.10;80.80;;;;;;5087962;28;20482;-23
2021/06/20 02:50:17;;;;;;;2.83;2.50;;;25.10;80.20;;;;;;5088091;28;20455;-26
2021/06/20 02:52:49;;;;;;;3.30;2.20;;;25.00;80.00;;;;;;5088227;28;20451;-23
2021/06/20 02:55:21;;;;;;;1.90;1.80;;;24.90;81.10;;;;;;5086779;28;20462;-26
2021/06/20 02:57:53;;;;;;;4.50;2.60;;;24.90;81.20;;;;;;5087670;28;20801;-24
2021/06/20 03:00:24;;;;;;;2.37;2.17;;;24.80;82.10;;;;;;5087534;28;20470;-24
2021/06/20 03:02:55;;;;;;;2.93;2.13;;;24.80;83.10;;;;;;5083240;28;20452;-24
2021/06/20 03:05:26;;;;;;;2.60;2.37;;;24.70;82.90;;;;;;5082555;28;20487;-24
2021/06/20 03:07:57;;;;;;;2.27;2.07;;;24.60;83.30;;;;;;5081845;28;20475;-22
2021/06/20 03:10:30;;;;;;;3.90;2.13;;;24.60;83.40;;;;;;5083809;28;20458;-23
2021/06/20 03:13:05;;;;;;;2.30;2.10;;;24.60;84.40;;;;;;5084302;28;20467;-25
2021/06/20 03:15:38;;;;;;;3.20;2.10;;;24.60;84.70;;;;;;5074047;28;20480;-27
2021/06/20 03:18:09;;;;;;;4.63;2.07;;;24.50;84.70;;;;;;5085318;28;20455;-27
2021/06/20 03:20:40;;;;;;;4.30;2.30;;;24.40;85.70;;;;;;5084500;28;20448;-23
2021/06/20 03:23:11;;;;;;;2.67;1.80;;;24.40;86.30;;;;;;5084677;28;20478;-24
2021/06/20 03:25:44;;;;;;;3.33;1.70;;;24.30;86.50;;;;;;5083571;28;20536;-23
2021/06/20 03:28:15;;;;;;;2.93;2.30;;;24.20;87.70;;;;;;5085274;28;20466;-23
2021/06/20 03:30:46;;;;;;;2.03;1.83;;;24.10;87.60;;;;;;5084221;28;20451;-25
2021/06/20 03:33:17;;;;;;;2.70;2.10;;;24.00;88.80;;;;;;5083475;28;20451;-23
2021/06/20 03:35:48;;;;;;;2.60;1.80;;;23.90;90.30;;;;;;5084019;28;20439;-24
2021/06/20 03:38:19;;;;;;;4.60;2.13;;;23.80;90.10;;;;;;5084620;28;20447;-23
2021/06/20 03:40:52;;;;;;;3.47;2.00;;;23.80;90.30;;;;;;5083424;28;20472;-23
2021/06/20 03:43:23;;;;;;;2.83;2.40;;;23.70;90.70;;;;;;5084638;28;20452;-23
2021/06/20 03:45:54;;;;;;;3.27;2.17;;;23.60;91.20;;;;;;5081645;28;20456;-24
2021/06/20 03:48:44;;;;;;;2.27;2.07;;;23.60;91.70;;;;;;5083988;28;20461;-23
2021/06/20 03:51:15;;;;;;;2.60;2.00;;;23.50;91.90;;;;;;5083810;28;20451;-24
2021/06/20 03:53:47;;;;;;;4.07;2.10;;;23.50;91.80;;;;;;5084558;28;20470;-22
2021/06/20 03:56:19;;;;;;;3.73;2.53;;;23.30;92.50;;;;;;5080973;28;20475;-22
2021/06/20 03:58:50;;;;;;;2.87;2.03;;;23.30;92.70;;;;;;5084574;28;20582;-25
2021/06/20 04:01:21;;;;;;;2.57;2.30;;;23.20;93.00;;;;;;5083716;28;20445;-22
2021/06/20 04:03:53;;;;;;;1.70;1.60;;;23.10;93.70;;;;;;5082056;28;20559;-22
2021/06/20 04:06:23;;;;;;;3.00;1.70;;;23.10;93.70;;;;;;5074600;28;20519;-22
2021/06/20 04:08:55;;;;;;;2.53;1.50;;;22.90;94.20;;;;;;5072780;28;20543;-22
2021/06/20 04:11:28;;;;;;;1.90;1.73;;;22.90;94.40;;;;;;5076686;28;20471;-23
2021/06/20 04:13:59;;;;;;;2.13;1.50;;;22.80;94.20;;;;;;5077037;28;20459;-22
2021/06/20 04:16:30;;;;;;;2.17;1.97;;;22.80;94.80;;;;;;5081539;28;20421;-24
2021/06/20 04:19:01;;;;;;;3.80;1.77;;;22.60;95.20;;;;;;5072703;28;20427;-23
2021/06/20 04:21:32;;;;;;;2.63;1.77;;;22.50;95.50;;;;;;5083334;28;20455;-32
2021/06/20 04:24:03;;;;;;;3.83;2.10;;;22.50;96.00;;;;;;5082816;28;20456;-23
2021/06/20 04:26:36;;;;;;;1.50;1.40;;;22.40;96.20;;;;;;5082828;28;20479;-25
2021/06/20 04:29:07;;;;;;;3.10;1.80;;;22.30;96.70;;;;;;5083414;28;20440;-22
2021/06/20 04:31:38;;;;;;;2.00;1.80;;;22.30;97.10;;;;;;5083545;28;20505;-25
2021/06/20 04:34:10;;;;;;;2.03;1.93;;;22.20;97.30;;;;;;5083604;28;20468;-22
2021/06/20 04:36:41;;;;;;;2.10;1.90;;;22.20;97.50;;;;;;5081934;28;20529;-23
2021/06/20 04:39:12;;;;;;;1.93;1.83;;;22.10;97.80;;;;;;5082560;28;20447;-23
2021/06/20 04:41:44;;;;;;;4.77;2.40;;;22.10;98.30;;;;;;5082681;28;20746;-25
2021/06/20 04:47:04;;;;;;;2.87;2.63;;;22.00;98.80;;;;;;5083183;28;20593;-23
2021/06/20 04:49:36;;;;;;;2.87;2.67;;;21.90;99.10;;;;;;5083266;28;20434;-25
2021/06/20 04:52:08;;;;;;;2.50;2.30;;;21.80;99.60;;;;;;5081530;28;20472;-22
2021/06/20 04:54:50;;;;;;;2.40;2.03;;;21.70;99.80;;;;;;5080972;28;20493;-23
2021/06/20 04:57:25;;;;;;;3.83;2.40;;;21.70;99.90;;;;;;5082570;28;20477;-24
2021/06/20 05:00:00;;;;;;;6.90;2.30;;;21.70;99.90;;;;;;5082549;28;20438;-22
2021/06/20 05:02:31;;;;;;;2.57;2.23;;;21.60;99.90;;;;;;5082384;28;20447;-24
2021/06/20 05:05:02;;;;;;;2.70;2.50;;;21.50;99.90;;;;;;5076694;28;20410;-26
2021/06/20 05:07:34;;;;;;;2.60;2.40;;;21.50;99.90;;;;;;5079168;28;20568;-24
2021/06/20 05:10:09;;;;;;;3.50;2.80;;;21.40;99.90;;;;;;5077341;28;20478;-22
2021/06/20 05:12:41;;;;;;;3.30;3.10;;;21.40;99.90;;;;;;5079789;28;20812;-22
2021/06/20 05:15:13;;;;;;;5.33;3.10;;;21.30;99.90;;;;;;5077965;28;20436;-31
2021/06/20 05:17:45;;;;;;;3.07;2.80;;;21.30;99.90;;;;;;5082901;28;20444;-23
2021/06/20 05:20:16;;;;;;;3.10;2.80;;;21.20;99.90;;;;;;5082015;28;20494;-23
2021/06/20 05:22:47;;;;;;;3.30;2.67;;;21.10;99.90;;;;;;5077014;28;20423;-23
2021/06/20 05:25:18;;;;;;;3.20;2.90;;;21.00;99.90;;;;;;5080201;28;20487;-26
2021/06/20 05:27:51;;;;;;;2.73;2.27;;;21.00;99.90;;;;;;5081268;28;20497;-23
2021/06/20 05:30:23;;;;;;;4.83;2.70;;;20.90;99.90;;;;;;5078860;28;20953;-23
2021/06/20 05:32:54;;;;;;;2.60;2.40;;;20.80;99.90;;;;;;5081919;28;20439;-24
2021/06/20 05:35:25;;;;;;;2.73;2.40;;;20.80;99.90;;;;;;5081837;28;20429;-23
2021/06/20 05:37:56;;;;;;;2.90;2.70;;;20.80;99.90;;;;;;5081986;28;20509;-22
2021/06/20 05:40:27;;;;;;;2.90;2.57;;;20.80;99.90;;;;;;5079774;28;20906;-22
2021/06/20 05:43:00;;;;;;;2.60;2.40;;;20.70;99.90;;;;;;5072919;28;20451;-26
2021/06/20 05:45:31;;;;;;;2.70;2.50;;;20.60;99.90;;;;;;5069004;28;20437;-25
2021/06/20 05:48:03;;;;;;;3.10;2.80;;;20.60;99.90;;;;;;5082182;28;20491;-24
2021/06/20 05:50:35;;;;;;;2.67;2.47;;;20.50;99.90;;;;;;5081760;28;20946;-24
2021/06/20 05:53:06;;;;;;;2.90;2.37;;;20.50;99.90;;;;;;5081763;28;20490;-22
2021/06/20 05:55:37;;;;;;;2.20;2.00;;;20.50;99.90;;;;;;5080551;28;20546;-24
2021/06/20 05:58:09;;;;;;;2.97;2.57;;;20.40;99.90;;;;;;5075266;28;20467;-24
2021/06/20 06:00:40;;;;;;;3.00;2.80;;;20.30;99.90;;;;;;5081002;28;20458;-22
2021/06/20 06:03:11;;;;;;;3.50;3.10;;;20.20;99.90;;;;;;5081666;28;20417;-24
2021/06/20 06:05:42;;;;;;;2.73;2.53;;;20.20;99.90;;;;;;5081542;28;20466;-24
2021/06/20 06:08:13;;;;;;;2.57;2.07;;;20.10;99.90;;;;;;5081965;28;20519;-23
2021/06/20 06:10:44;;;;;;;2.30;2.10;;;20.10;99.90;;;;;;5078595;28;20495;-22
2021/06/20 06:13:17;;;;;;;3.47;2.40;;;20.00;99.90;;;;;;5081611;28;20462;-25
2021/06/20 06:15:48;;;;;;;2.20;2.00;;;20.00;99.90;;;;;;5079704;28;20451;-23
2021/06/20 06:18:19;;;;;;;2.70;2.27;;;20.00;99.90;;;;;;5081850;28;20426;-22
2021/06/20 06:20:50;;;;;;;2.27;2.07;;;19.90;99.90;;;;;;5081146;28;20789;-25
2021/06/20 06:23:21;;;;;;;2.87;2.13;;;19.80;99.90;;;;;;5078758;28;20422;-24
2021/06/20 06:25:52;;;;;;;2.60;2.40;;;19.80;99.90;;;;;;5080844;28;20447;-23
2021/06/20 06:28:24;;;;;;;3.03;2.00;;;19.70;99.90;;;;;;5081612;28;20483;-23
2021/06/20 06:30:55;;;;;;;2.60;2.40;;;19.70;99.90;;;;;;5080798;28;20527;-22
2021/06/20 06:33:26;;;;;;;2.20;2.00;;;19.60;99.90;;;;;;5081479;28;20448;-25
2021/06/20 06:35:57;;;;;;;3.20;2.47;;;19.60;99.90;;;;;;5081384;28;20479;-22
2021/06/20 06:38:28;;;;;;;3.10;2.70;;;19.60;99.90;;;;;;5085514;28;20475;-22
2021/06/20 06:41:00;;;;;;;3.33;2.30;;;19.50;99.90;;;;;;5083288;28;20480;-22
2021/06/20 06:43:32;;;;;;;3.90;2.30;;;19.50;99.90;;;;;;5084015;28;20447;-22
2021/06/20 06:46:03;;;;;;;2.70;2.50;;;19.40;99.90;;;;;;5069444;28;20447;-23
2021/06/20 06:48:35;;;;;;;4.00;2.60;;;19.40;99.90;;;;;;5084892;28;20470;-23
2021/06/20 06:51:06;;;;;;;3.20;2.90;;;19.30;99.90;;;;;;5079656;28;20475;-23
2021/06/20 06:53:37;;;;;;;4.10;2.73;;;19.20;99.90;;;;;;5079313;28;20432;-22
2021/06/20 06:56:08;;;;;;;2.60;2.40;;;19.20;99.90;;;;;;5079953;28;20526;-22
2021/06/20 06:58:41;;;;;;;2.47;2.23;;;19.20;99.90;;;;;;5070686;28;20447;-23
2021/06/20 07:01:12;;;;;;;2.73;2.37;;;19.10;99.90;;;;;;5082679;28;20446;-23
2021/06/20 07:03:43;;;;;;;4.20;2.57;;;19.20;99.90;;;;;;5081377;28;20519;-23
2021/06/20 07:06:14;;;;;;;2.70;2.50;;;19.10;99.90;;;;;;5080364;28;20932;-23
2021/06/20 07:08:45;;;;;;;5.90;2.40;;;19.00;99.90;;;;;;5077551;28;20515;-22
2021/06/20 07:11:16;;;;;;;2.93;2.30;;;19.10;99.90;;;;;;5067306;28;20463;-25
2021/06/20 07:13:49;;;;;;;2.77;2.57;;;19.00;99.90;;;;;;5080722;28;20452;-20
2021/06/20 07:16:20;;;;;;;2.60;2.37;;;19.00;99.90;;;;;;5076295;28;20452;-23
2021/06/20 07:18:51;;;;;;;2.50;2.30;;;18.90;99.90;;;;;;5071479;28;20436;-23
2021/06/20 07:21:23;;;;;;;3.53;2.30;;;18.90;99.90;;;;;;5077413;28;20463;-24
2021/06/20 07:23:54;;;;;;;2.63;2.40;;;18.80;99.90;;;;;;5075990;28;20448;-22
2021/06/20 07:26:25;;;;;;;3.37;1.87;;;18.90;99.90;;;;;;5075793;28;20914;-22
2021/06/20 07:28:57;;;;;;;2.93;2.73;;;18.80;99.90;;;;;;5082721;28;20484;-25
2021/06/20 07:31:28;;;;;;;2.80;2.40;;;18.80;99.90;;;;;;5081886;28;20447;-23
2021/06/20 07:34:01;;;;;;;2.17;2.07;;;18.80;99.90;;;;;;5075589;28;20479;-23
2021/06/20 07:36:32;;;;;;;2.17;2.07;;;18.80;99.90;;;;;;5065225;28;20506;-23
2021/06/20 07:39:03;;;;;;;3.07;2.47;;;18.70;99.90;;;;;;5070699;28;20463;-22
2021/06/20 07:41:34;;;;;;;2.33;1.70;;;18.70;99.90;;;;;;5084084;28;20467;-22
2021/06/20 07:44:07;;;;;;;2.80;2.60;;;18.70;99.90;;;;;;5083571;28;20456;-23
2021/06/20 07:46:57;;;;;;;2.97;2.60;;;18.60;99.90;;;;;;5079623;28;20471;-21
2021/06/20 07:49:28;;;;;;;2.20;1.93;;;18.60;99.90;;;;;;5080033;28;20563;-21
2021/06/20 07:52:01;;;;;;;3.00;2.70;;;18.50;99.90;;;;;;5079522;28;20523;-24
2021/06/20 07:54:32;;;;;;;2.57;2.37;;;18.50;99.90;;;;;;5073501;28;20513;-22
2021/06/20 07:57:04;;;;;;;2.60;2.40;;;18.50;99.90;;;;;;5078745;28;20463;-23
2021/06/20 07:59:37;;;;;;;2.60;2.40;;;18.40;99.90;;;;;;5081751;28;20547;-26
2021/06/20 08:02:08;;;;;;;1.97;1.80;;;18.40;99.90;;;;;;5083448;28;20417;-22
2021/06/20 08:04:40;;;;;;;2.73;2.33;;;18.30;99.90;;;;;;5079740;28;20510;-22
2021/06/20 08:07:11;;;;;;;3.03;2.10;;;18.30;99.90;;;;;;5080692;28;20842;-21
2021/06/20 08:09:43;;;;;;;2.40;1.70;;;18.20;99.90;;;;;;5069739;28;20516;-21
2021/06/20 08:12:14;;;;;;;2.40;2.20;;;18.30;99.90;;;;;;5065338;28;20484;-22
2021/06/20 08:14:47;;;;;;;2.90;2.27;;;18.30;99.90;;;;;;5072022;28;20471;-22
2021/06/20 08:17:18;;;;;;;2.40;2.20;;;18.20;99.90;;;;;;5081781;28;20491;-22
2021/06/20 08:19:49;;;;;;;3.60;2.80;;;18.20;99.90;;;;;;5082866;28;20447;-22
2021/06/20 08:22:23;;;;;;;2.50;2.30;;;18.20;99.90;;;;;;5082664;28;20863;-24
2021/06/20 08:24:54;;;;;;;5.30;2.30;;;18.10;99.90;;;;;;5082529;28;20458;-21
2021/06/20 08:27:25;;;;;;;3.70;2.23;;;18.10;99.90;;;;;;5082605;28;20475;-22
2021/06/20 08:29:58;;;;;;;3.03;2.10;;;18.10;99.90;;;;;;5076292;28;20540;-22
2021/06/20 08:32:30;;;;;;;2.70;2.50;;;18.10;99.90;;;;;;5079656;28;20540;-23
2021/06/20 08:35:02;;;;;;;2.40;2.20;;;18.10;99.90;;;;;;5080104;28;20463;-25
2021/06/20 08:37:33;;;;;;;2.40;2.20;;;18.00;99.90;;;;;;5080117;28;20456;-22
2021/06/20 08:40:06;;;;;;;2.27;1.93;;;17.90;99.90;;;;;;5078396;28;20523;-21
2021/06/20 08:42:37;;;;;;;5.33;2.33;;;17.90;99.90;;;;;;5082250;28;20451;-22
2021/06/20 08:45:14;;;;;;;2.33;2.13;;;17.90;99.90;;;;;;5079255;28;20479;-22
2021/06/20 08:47:47;;;;;;;2.60;2.40;;;17.80;99.90;;;;;;5083272;28;20539;-22
2021/06/20 08:50:18;;;;;;;2.17;2.00;;;17.80;99.90;;;;;;5082719;28;20447;-24
2021/06/20 08:52:53;;;;;;;2.50;2.30;;;17.70;99.90;;;;;;5081982;28;20504;-22
2021/06/20 08:55:25;;;;;;;2.13;2.03;;;17.70;99.90;;;;;;5077722;28;20486;-22
2021/06/20 08:58:00;;;;;;;3.37;2.47;;;17.60;99.90;;;;;;5082498;28;20454;-22
2021/06/20 09:00:33;;;;;;;3.53;2.70;;;17.60;99.90;;;;;;5081648;28;20462;-22
2021/06/20 09:03:04;;;;;;;4.00;2.33;;;17.60;99.90;;;;;;5082978;28;20443;-21
2021/06/20 09:05:35;;;;;;;2.83;2.53;;;17.60;99.90;;;;;;5080183;28;20432;-22
2021/06/20 09:08:16;;;;;;;2.57;2.00;;;17.60;99.90;;;;;;5081107;28;20502;-23
2021/06/20 09:10:47;;;;;;;3.20;2.30;;;17.50;99.90;;;;;;5080836;28;20459;-22
2021/06/20 09:13:18;;;;;;;4.10;2.00;;;17.50;99.90;;;;;;5081793;28;20451;-23
2021/06/20 09:16:01;;;;;;;2.37;2.17;;;17.50;99.90;;;;;;5067890;28;20460;-21
2021/06/20 09:18:35;;;;;;;2.60;2.20;;;17.40;99.90;;;;;;5064616;28;20479;-22
2021/06/20 09:21:11;;;;;;;2.23;2.03;;;17.40;99.90;;;;;;5065624;28;20471;-22
2021/06/20 09:23:44;;;;;;;2.10;1.93;;;17.30;99.90;;;;;;5081331;28;20452;-21
2021/06/20 09:26:15;;;;;;;2.30;2.10;;;17.30;99.90;;;;;;5080898;28;20475;-21
2021/06/20 09:28:52;;;;;;;2.70;2.17;;;17.30;99.90;;;;;;5081140;28;20522;-22
2021/06/20 09:31:25;;;;;;;3.63;2.60;;;17.20;99.90;;;;;;5073151;28;20482;-23
2021/06/20 09:34:01;;;;;;;4.17;2.57;;;17.20;99.90;;;;;;5082528;28;20509;-24
2021/06/20 09:36:32;;;;;;;2.07;1.97;;;17.20;99.90;;;;;;5081333;28;20467;-22
2021/06/20 09:39:06;;;;;;;4.90;2.70;;;17.20;99.90;;;;;;5069373;28;20439;-22
2021/06/20 09:41:37;;;;;;;3.33;2.50;;;17.20;99.90;;;;;;5082023;28;20451;-21
2021/06/20 09:44:08;;;;;;;2.40;1.90;;;17.10;99.90;;;;;;5081573;28;20467;-24
2021/06/20 09:46:42;;;;;;;3.40;2.57;;;17.00;99.90;;;;;;5081813;28;20527;-22
2021/06/20 09:49:14;;;;;;;2.67;2.47;;;17.00;99.90;;;;;;5076745;28;20605;-22
2021/06/20 09:51:55;;;;;;;2.97;2.77;;;16.90;99.90;;;;;;5082274;28;20436;-21
2021/06/20 09:54:30;;;;;;;2.77;2.57;;;16.90;99.90;;;;;;5079006;28;20597;-22
2021/06/20 09:57:01;;;;;;;2.63;2.33;;;16.80;99.90;;;;;;5082303;28;20534;-21
2021/06/20 09:59:33;;;;;;;2.47;2.27;;;16.80;99.90;;;;;;5081273;28;20454;-21
2021/06/20 10:02:14;;;;;;;3.60;2.70;;;16.80;99.90;;;;;;5080241;28;20484;-22
2021/06/20 10:04:45;;;;;;;2.67;2.47;;;16.80;99.90;;;;;;5081767;28;20455;-21
2021/06/20 10:07:16;;;;;;;2.80;2.60;;;16.80;99.90;;;;;;5082321;28;20479;-21
2021/06/20 10:09:47;;;;;;;2.47;2.27;;;16.80;99.90;;;;;;5076669;28;20490;-22
2021/06/20 10:12:18;;;;;;;2.57;2.37;;;16.70;99.90;;;;;;5080630;28;20479;-22
2021/06/20 10:14:51;;;;;;;2.37;2.17;;;16.60;99.90;;;;;;5084210;28;20455;-23
2021/06/20 10:17:31;;;;;;;3.07;2.87;;;16.60;99.90;;;;;;5084143;28;20490;-22
2021/06/20 10:20:05;;;;;;;2.73;2.53;;;16.60;99.90;;;;;;5078314;28;20475;-21
2021/06/20 10:22:37;;;;;;;3.00;2.40;;;16.60;99.90;;;;;;5076895;28;20468;-21
2021/06/20 10:25:10;;;;;;;2.90;2.70;;;16.60;99.90;;;;;;5080530;28;20451;-22
2021/06/20 10:27:44;;;;;;;2.90;2.60;;;16.60;99.90;;;;;;5086055;28;20623;-22
2021/06/20 10:30:22;;;;;;;2.87;2.67;;;16.50;99.90;;;;;;5074060;28;20518;-21
2021/06/20 10:33:04;;;;;;;2.23;2.03;;;16.50;99.90;;;;;;5071823;28;20467;-22
2021/06/20 10:35:35;;;;;;;2.57;2.37;;;16.40;99.90;;;;;;5076443;28;20471;-22
2021/06/20 10:38:07;;;;;;;2.30;2.20;;;16.40;99.90;;;;;;5068092;28;20480;-24
2021/06/20 10:40:44;;;;;;;3.20;2.20;;;16.40;99.90;;;;;;5068579;28;20456;-22
2021/06/20 10:43:19;;;;;;;3.73;2.63;;;16.40;99.90;;;;;;5084181;28;20443;-24
2021/06/20 10:45:50;;;;;;;2.73;2.50;;;16.40;99.90;;;;;;5085440;28;20442;-21
2021/06/20 10:48:41;;;;;;;2.70;2.50;;;16.40;99.90;;;;;;5079031;28;20620;-21
2021/06/20 10:51:19;;;;;;;3.23;2.93;;;16.40;99.90;;;;;;5082536;28;20504;-22
2021/06/20 10:53:51;;;;;;;2.90;2.60;;;16.30;99.90;;;;;;5084041;28;20439;-22
2021/06/20 10:56:23;;;;;;;2.57;2.37;;;16.30;99.90;;;;;;5083620;28;20517;-21
2021/06/20 10:58:56;;;;;;;2.53;2.40;;;16.20;99.90;;;;;;5083740;28;20432;-23
2021/06/20 11:01:30;;;;;;;2.50;2.30;;;16.30;99.90;;;;;;5081802;28;20448;-22
2021/06/20 11:04:03;;;;;;;2.57;2.37;;;16.20;99.90;;;;;;5075855;28;20861;-22
2021/06/20 11:06:35;;;;;;;2.70;2.50;;;16.10;99.90;;;;;;5078672;28;20451;-23
2021/06/20 11:09:07;;;;;;;4.20;2.20;;;16.10;99.90;;;;;;5083521;28;20474;-23
2021/06/20 11:11:49;;;;;;;2.70;2.50;;;16.10;99.90;;;;;;5084857;28;20463;-26
2021/06/20 11:14:20;;;;;;;2.63;2.43;;;16.10;99.90;;;;;;5083074;28;20475;-21
2021/06/20 11:16:52;;;;;;;3.13;2.30;;;16.10;99.90;;;;;;5078096;28;20473;-22
2021/06/20 11:19:27;;;;;;;2.97;2.77;;;16.00;99.90;;;;;;5084369;28;20455;-22
2021/06/20 11:22:00;;;;;;;2.90;2.70;;;16.10;99.90;;;;;;5083417;28;20474;-21
2021/06/20 11:24:33;;;;;;;2.77;2.57;;;16.10;99.90;;;;;;5079246;28;20447;-24
2021/06/20 11:27:05;;;;;;;3.77;2.77;;;16.00;99.90;;;;;;5084349;28;20483;-22
2021/06/20 11:29:41;;;;;;;2.50;2.30;;;16.00;99.90;;;;;;5083866;28;20539;-21
2021/06/20 11:32:17;;;;;;;3.47;3.10;;;16.00;99.90;;;;;;5084815;28;20483;-23
2021/06/20 11:34:52;;;;;;;3.60;3.00;;;15.90;99.90;;;;;;5084493;28;20466;-22
2021/06/20 11:37:25;;;;;;;3.77;3.13;;;15.90;99.90;;;;;;5081596;28;20944;-27
2021/06/20 11:39:58;;;;;;;4.17;3.30;;;15.90;99.90;;;;;;5083110;28;20475;-21
2021/06/20 11:42:32;;;;;;;2.80;2.60;;;15.80;99.90;;;;;;5083744;28;20507;-21
2021/06/20 11:45:04;;;;;;;3.20;2.90;;;15.80;99.90;;;;;;5080203;28;20448;-23
2021/06/20 11:47:37;;;;;;;3.30;2.90;;;15.80;99.90;;;;;;5072168;28;20505;-21
2021/06/20 11:50:16;;;;;;;3.13;2.93;;;15.70;99.90;;;;;;5082661;28;20545;-25
2021/06/20 11:52:49;;;;;;;3.70;3.40;;;15.70;99.90;;;;;;5074457;28;20487;-21
2021/06/20 11:55:22;;;;;;;3.70;3.13;;;15.70;99.90;;;;;;5081486;28;20515;-23
2021/06/20 11:57:54;;;;;;;3.17;2.87;;;15.70;99.90;;;;;;5081634;28;20474;-22
2021/06/20 12:00:27;;;;;;;4.07;3.47;;;15.80;99.90;;;;;;5073242;28;20549;-24
2021/06/20 12:03:02;;;;;;;3.93;3.27;;;15.70;99.90;;;;;;5083998;28;20476;-22
2021/06/20 12:05:37;;;;;;;3.03;2.83;;;15.70;99.90;;;;;;5083053;28;20504;-22
2021/06/20 12:08:08;;;;;;;3.30;3.10;;;15.60;99.90;;;;;;5070089;28;20455;-26
2021/06/20 12:10:42;;;;;;;3.43;3.13;;;15.60;99.90;;;;;;5082397;28;20591;-21
2021/06/20 12:13:13;;;;;;;3.60;3.30;;;15.70;99.90;;;;;;5078076;28;20452;-23
2021/06/20 12:15:45;;;;;;;3.20;3.00;;;15.60;99.90;;;;;;5068254;28;20503;-22
2021/06/20 12:18:20;;;;;;;3.60;3.30;;;15.60;99.90;;;;;;5083319;28;20443;-22
2021/06/20 12:20:55;;;;;;;3.33;3.03;;;15.60;99.90;;;;;;5083669;28;20466;-24
2021/06/20 12:23:27;;;;;;;4.90;3.60;;;15.50;99.90;;;;;;5072825;28;20462;-24
2021/06/20 12:25:58;;;;;;;3.40;3.10;;;15.50;99.90;;;;;;5081973;28;20460;-22
2021/06/20 12:28:30;;;;;;;4.23;2.80;;;15.50;99.90;;;;;;5082821;28;20452;-22
2021/06/20 12:31:01;;;;;;;3.23;2.97;;;15.50;99.90;;;;;;5075988;28;20487;-22
2021/06/20 12:33:33;;;;;;;3.80;3.10;;;15.50;99.90;;;;;;5083303;28;20516;-22
2021/06/20 12:36:06;;;;;;;3.20;3.00;;;15.40;99.90;;;;;;5081460;28;20904;-25
2021/06/20 12:38:38;;;;;;;3.13;2.83;;;15.40;99.90;;;;;;5075212;28;20451;-22
2021/06/20 12:41:19;;;;;;;3.70;3.40;;;15.40;99.90;;;;;;5081766;28;20471;-22
2021/06/20 12:44:00;;;;;;;3.73;3.43;;;15.40;99.90;;;;;;5074199;28;20480;-22
2021/06/20 12:46:33;;;;;;;3.97;3.67;;;15.40;99.90;;;;;;5068434;28;20462;-21
2021/06/20 12:49:27;;;;;;;3.70;3.40;;;15.40;99.90;;;;;;5077049;28;20495;-21
2021/06/20 12:52:02;;;;;;;3.70;3.40;;;15.40;99.90;;;;;;5077809;28;20550;-24
2021/06/20 12:54:52;;;;;;;4.17;3.70;;;15.40;99.90;;;;;;5081707;28;21002;-22
2021/06/20 12:57:29;;;;;;;4.00;3.27;;;15.40;99.90;;;;;;5082696;28;20444;-21
2021/06/20 13:00:09;;;;;;;3.13;2.93;;;15.40;99.90;;;;;;5082255;28;20482;-23
2021/06/20 13:02:42;;;;;;;3.23;2.97;;;15.40;99.90;;;;;;5082308;28;20594;-24
2021/06/20 13:05:13;;;;;;;4.03;3.50;;;15.40;99.90;;;;;;5082666;28;20448;-23
2021/06/20 13:07:48;;;;;;;3.27;3.07;;;15.40;99.90;;;;;;5072632;28;20502;-21
2021/06/20 13:10:19;;;;;;;4.07;3.67;;;15.40;99.90;;;;;;5079472;28;20478;-22
2021/06/20 13:12:50;;;;;;;3.83;3.53;;;15.50;99.90;;;;;;5081837;28;20456;-25
2021/06/20 13:15:21;;;;;;;4.40;3.67;;;15.50;99.90;;;;;;5081253;28;20478;-23
2021/06/20 13:17:53;;;;;;;3.83;3.10;;;15.50;99.90;;;;;;5082675;28;20456;-24